Time;durP1;ratioP1;P1;durP2;ratioP2;P2;SDS_P1;SDS_P2;PMS_P1;PMS_P2;Temp;Humidity;BMP_temperature;BMP_pressure;BME280_temperature;BME280_humidity;BME280_pressure;Samples;Min_cycle;Max_cycle;Signal;HPM_P1;HPM_P2
2023/01/05 00:01:06;;;;;;;30.67;7.30;;;;;;;10.09;100.00;101528.78;4829435;29;20062;-83
2023/01/05 00:03:33;;;;;;;27.20;6.93;;;;;;;10.07;100.00;101518.16;4828196;29;20050;-82
2023/01/05 00:06:00;;;;;;;22.57;5.90;;;;;;;10.10;100.00;101522.34;4819752;29;20027;-82
2023/01/05 00:08:25;;;;;;;27.63;5.90;;;;;;;10.10;100.00;101516.94;4835268;29;20045;-82
2023/01/05 00:24:31;;;;;;;26.70;5.68;;;;;;;10.05;100.00;101505.84;4817191;29;20130;-83
2023/01/05 00:26:56;;;;;;;26.53;6.10;;;;;;;10.01;100.00;101515.38;4806075;29;20046;-83
2023/01/05 00:29:22;;;;;;;28.17;6.30;;;;;;;9.97;100.00;101523.88;4821520;29;20069;-82
2023/01/05 00:31:47;;;;;;;31.33;7.07;;;;;;;9.91;100.00;101515.69;4815286;29;20062;-82
2023/01/05 00:34:12;;;;;;;28.57;6.40;;;;;;;9.88;100.00;101524.19;4835887;29;20054;-83
2023/01/05 00:36:39;;;;;;;28.27;6.50;;;;;;;9.87;100.00;101531.47;4822326;29;20368;-82
2023/01/05 00:39:05;;;;;;;29.17;6.47;;;;;;;9.84;100.00;101534.56;4835520;29;20135;-82
2023/01/05 00:41:30;;;;;;;27.30;6.17;;;;;;;9.79;100.00;101532.44;4836545;29;20038;-82
2023/01/05 00:43:56;;;;;;;29.03;6.20;;;;;;;9.82;100.00;101527.66;4813560;29;20026;-83
2023/01/05 00:46:21;;;;;;;28.27;6.77;;;;;;;9.76;100.00;101534.66;4839636;29;20029;-83
2023/01/05 00:48:46;;;;;;;26.27;6.40;;;;;;;9.75;100.00;101525.72;4833644;29;20033;-83
2023/01/05 00:51:12;;;;;;;28.27;7.07;;;;;;;9.72;100.00;101533.38;4829010;29;20041;-82
2023/01/05 00:53:37;;;;;;;26.87;5.73;;;;;;;9.73;100.00;101537.75;4818593;29;20042;-83
2023/01/05 00:56:03;;;;;;;30.07;6.63;;;;;;;9.72;100.00;101525.25;4832980;29;20073;-83
2023/01/05 00:58:28;;;;;;;28.40;6.20;;;;;;;9.58;100.00;101530.50;4800379;29;20067;-82
2023/01/05 01:00:53;;;;;;;30.87;6.27;;;;;;;9.58;100.00;101522.38;4839185;29;20034;-83
2023/01/05 01:03:19;;;;;;;27.87;6.77;;;;;;;9.56;100.00;101521.75;4827887;29;20119;-82
2023/01/05 01:05:44;;;;;;;27.23;6.10;;;;;;;9.48;100.00;101529.09;4835706;29;20041;-82
2023/01/05 01:08:09;;;;;;;27.33;6.63;;;;;;;9.41;100.00;101529.88;4834926;29;20046;-82
2023/01/05 01:10:39;;;;;;;26.03;5.80;;;;;;;9.39;100.00;101536.50;4837477;29;20113;-83
2023/01/05 01:13:04;;;;;;;29.63;6.03;;;;;;;9.35;100.00;101532.47;4828975;29;20108;-82
2023/01/05 01:15:29;;;;;;;26.90;6.17;;;;;;;9.28;100.00;101535.91;4819053;29;20101;-82
2023/01/05 01:17:55;;;;;;;27.73;5.77;;;;;;;9.34;100.00;101538.91;4835443;29;20026;-82
2023/01/05 01:20:20;;;;;;;27.67;5.80;;;;;;;9.37;100.00;101536.69;4804294;29;20436;-82
2023/01/05 01:22:45;;;;;;;29.90;7.70;;;;;;;9.35;100.00;101540.59;4821857;29;20040;-83
2023/01/05 01:25:11;;;;;;;33.10;6.47;;;;;;;9.35;100.00;101543.28;4806407;29;20038;-83
2023/01/05 01:27:36;;;;;;;31.27;6.90;;;;;;;9.27;100.00;101544.22;4820564;29;20041;-82
2023/01/05 01:30:02;;;;;;;28.43;6.03;;;;;;;9.20;100.00;101551.41;4822110;29;20037;-82
2023/01/05 01:32:27;;;;;;;30.03;6.17;;;;;;;9.13;100.00;101559.41;4825307;29;20034;-87
2023/01/05 01:34:54;;;;;;;30.90;6.27;;;;;;;9.15;100.00;101557.34;4838362;29;20044;-87
2023/01/05 01:37:19;;;;;;;28.60;6.70;;;;;;;9.19;100.00;101555.13;4827239;29;20390;-87
2023/01/05 01:39:44;;;;;;;27.23;6.37;;;;;;;9.16;100.00;101567.16;4848612;29;20029;-87
2023/01/05 01:42:14;;;;;;;29.87;6.60;;;;;;;9.16;100.00;101566.31;4826719;29;20038;-87
2023/01/05 01:44:55;;;;;;;33.20;6.80;;;;;;;9.09;100.00;101569.75;4837615;29;20452;-87
2023/01/05 01:47:40;;;;;;;27.97;6.67;;;;;;;9.06;100.00;101580.09;4845214;29;21709;-87
2023/01/05 01:50:33;;;;;;;30.17;6.97;;;;;;;9.09;100.00;101577.03;4847591;29;20057;-87
2023/01/05 01:53:05;;;;;;;30.40;7.13;;;;;;;9.03;100.00;101570.50;4842548;29;20085;-87
2023/01/05 01:55:32;;;;;;;28.93;7.13;;;;;;;9.05;100.00;101587.34;4829866;29;20025;-87
2023/01/05 01:58:00;;;;;;;32.67;6.63;;;;;;;8.99;100.00;101598.91;4841999;29;20029;-87
2023/01/05 02:00:25;;;;;;;31.50;7.30;;;;;;;9.04;100.00;101585.66;4844975;29;20033;-87
2023/01/05 02:02:54;;;;;;;27.30;6.57;;;;;;;9.03;100.00;101585.84;4852254;29;21069;-87
2023/01/05 02:05:24;;;;;;;35.37;7.63;;;;;;;8.99;100.00;101592.66;4864618;29;20032;-87
2023/01/05 02:07:49;;;;;;;28.40;6.77;;;;;;;9.08;100.00;101586.16;4843399;29;20397;-87
2023/01/05 02:10:19;;;;;;;35.17;8.27;;;;;;;9.03;100.00;101596.66;4867682;29;20037;-87
2023/01/05 02:13:11;;;;;;;34.30;6.83;;;;;;;9.09;100.00;101602.19;4866077;29;20027;-87
2023/01/05 02:16:10;;;;;;;30.33;6.90;;;;;;;9.16;100.00;101596.88;4864323;29;20034;-87
2023/01/05 02:18:58;;;;;;;30.60;6.83;;;;;;;9.12;100.00;101590.16;4834835;29;20080;-87
2023/01/05 02:21:31;;;;;;;27.17;6.03;;;;;;;9.17;100.00;101600.44;4847298;29;20037;-88
2023/01/05 02:24:41;;;;;;;29.90;6.40;;;;;;;9.17;100.00;101592.34;4858560;29;20501;-87
2023/01/05 02:27:40;;;;;;;31.57;7.03;;;;;;;9.21;100.00;101597.19;4799908;29;20043;-87
2023/01/05 02:30:38;;;;;;;32.23;6.90;;;;;;;9.21;100.00;101594.47;4863267;29;20040;-87
2023/01/05 02:33:53;;;;;;;28.17;6.40;;;;;;;9.24;100.00;101593.28;4850813;29;20026;-87
2023/01/05 02:36:33;;;;;;;30.42;6.55;;;;;;;9.31;100.00;101598.78;4863594;29;20024;-87
2023/01/05 02:39:46;;;;;;;29.47;6.97;;;;;;;9.38;100.00;101599.72;4841636;29;20449;-88
2023/01/05 02:42:34;;;;;;;31.73;7.30;;;;;;;9.42;100.00;101601.88;4843068;29;20053;-87
2023/01/05 02:45:01;;;;;;;28.93;6.60;;;;;;;9.40;100.00;101597.69;4857748;29;20039;-87
2023/01/05 02:47:26;;;;;;;30.30;6.80;;;;;;;9.43;100.00;101605.41;4867072;29;20528;-87
2023/01/05 02:50:31;;;;;;;27.77;6.87;;;;;;;9.48;100.00;101608.41;4860107;29;20029;-87
2023/01/05 02:53:08;;;;;;;31.40;7.87;;;;;;;9.53;100.00;101595.13;4864766;29;20041;-87
2023/01/05 02:55:48;;;;;;;28.70;6.80;;;;;;;9.56;100.00;101596.63;4864857;29;20029;-87
2023/01/05 02:58:21;;;;;;;27.93;7.10;;;;;;;9.56;100.00;101612.88;4831508;29;20506;-87
2023/01/05 03:00:52;;;;;;;28.97;6.97;;;;;;;9.60;100.00;101601.50;4830518;29;20026;-88
2023/01/05 03:03:26;;;;;;;26.37;6.23;;;;;;;9.66;100.00;101607.19;4859348;29;20051;-87
2023/01/05 03:06:00;;;;;;;28.02;6.43;;;;;;;9.66;100.00;101613.44;4858368;29;20124;-87
2023/01/05 03:08:29;;;;;;;29.13;6.40;;;;;;;9.71;100.00;101613.72;4840798;29;20029;-83
2023/01/05 03:13:54;;;;;;;30.00;6.30;;;;;;;9.76;100.00;101610.44;4853192;29;20493;-82
2023/01/05 03:16:29;;;;;;;30.80;6.43;;;;;;;9.76;100.00;101613.16;4851180;29;20039;-82
2023/01/05 03:35:40;;;;;;;31.30;7.43;;;;;;;9.84;100.00;101607.63;4856180;29;20088;-82
2023/01/05 03:38:20;;;;;;;27.17;7.13;;;;;;;9.83;100.00;101608.66;4852844;29;20152;-82
2023/01/05 03:40:49;;;;;;;32.10;7.10;;;;;;;9.87;100.00;101615.38;4848650;29;20069;-82
2023/01/05 03:43:15;;;;;;;27.67;6.03;;;;;;;9.86;100.00;101608.31;4854525;29;21650;-83
2023/01/05 03:45:44;;;;;;;26.87;6.27;;;;;;;9.88;100.00;101605.41;4853890;29;20045;-82
2023/01/05 03:48:09;;;;;;;28.17;6.20;;;;;;;9.87;100.00;101609.97;4857806;29;20120;-82
2023/01/05 03:50:35;;;;;;;28.17;6.33;;;;;;;9.89;100.00;101607.91;4838171;29;20047;-82
2023/01/05 03:53:02;;;;;;;27.50;6.43;;;;;;;9.85;100.00;101614.72;4857301;29;20033;-82
2023/01/05 03:55:27;;;;;;;29.93;6.33;;;;;;;9.91;100.00;101616.69;4856019;29;20030;-82
2023/01/05 03:57:52;;;;;;;27.03;6.50;;;;;;;9.95;100.00;101618.00;4840372;29;20038;-82
2023/01/05 04:00:19;;;;;;;30.13;6.87;;;;;;;9.97;100.00;101615.09;4856255;29;20054;-82
2023/01/05 04:02:44;;;;;;;30.00;6.40;;;;;;;9.97;100.00;101613.22;4814271;29;20061;-82
2023/01/05 04:05:10;;;;;;;30.33;6.60;;;;;;;9.98;100.00;101616.75;4823063;29;21048;-82
2023/01/05 04:07:35;;;;;;;27.07;6.33;;;;;;;9.97;100.00;101610.53;4836195;29;20895;-88
2023/01/05 04:10:01;;;;;;;34.47;6.57;;;;;;;9.97;100.00;101607.81;4838168;29;20128;-88
2023/01/05 04:12:27;;;;;;;25.50;6.27;;;;;;;9.95;100.00;101618.00;4866618;29;20041;-87
2023/01/05 04:14:52;;;;;;;26.63;6.10;;;;;;;9.93;100.00;101605.69;4867802;29;20032;-88
2023/01/05 04:17:18;;;;;;;30.13;6.77;;;;;;;9.96;100.00;101611.53;4848304;29;20530;-87
2023/01/05 04:19:43;;;;;;;33.83;7.00;;;;;;;9.97;100.00;101615.94;4822118;29;20035;-87
2023/01/05 04:22:08;;;;;;;26.70;6.10;;;;;;;9.99;100.00;101623.03;4857516;29;20090;-88
2023/01/05 04:24:34;;;;;;;30.73;7.03;;;;;;;9.96;100.00;101618.84;4862597;29;20057;-87
2023/01/05 04:26:59;;;;;;;30.53;7.70;;;;;;;9.97;100.00;101615.09;4837289;29;20116;-87
2023/01/05 04:29:25;;;;;;;28.70;6.60;;;;;;;9.99;100.00;101623.88;4868103;29;20479;-87
2023/01/05 04:31:50;;;;;;;28.43;6.17;;;;;;;10.04;100.00;101629.56;4844701;29;20033;-82
2023/01/05 04:34:15;;;;;;;23.77;5.90;;;;;;;10.03;100.00;101627.88;4826036;29;20053;-83
2023/01/05 04:36:41;;;;;;;28.93;6.40;;;;;;;9.97;100.00;101623.22;4850574;29;20029;-83
2023/01/05 04:39:06;;;;;;;29.43;6.83;;;;;;;9.93;100.00;101611.09;4836837;29;20603;-83
2023/01/05 04:41:31;;;;;;;30.77;6.80;;;;;;;9.91;100.00;101613.13;4836554;29;21238;-83
2023/01/05 04:43:57;;;;;;;32.03;6.97;;;;;;;9.93;100.00;101620.03;4852418;29;20041;-83
2023/01/05 04:46:22;;;;;;;29.10;6.43;;;;;;;9.99;100.00;101628.44;4817386;29;20166;-83
2023/01/05 04:48:48;;;;;;;27.17;6.13;;;;;;;9.97;100.00;101620.53;4837690;29;20041;-82
2023/01/05 04:51:13;;;;;;;28.27;6.50;;;;;;;9.96;100.00;101644.03;4841001;29;20072;-82
2023/01/05 04:53:38;;;;;;;31.47;6.73;;;;;;;9.94;100.00;101621.72;4858963;29;20036;-82
2023/01/05 04:56:04;;;;;;;28.03;6.10;;;;;;;9.93;100.00;101619.22;4839505;29;20037;-83
2023/01/05 04:58:29;;;;;;;32.00;7.37;;;;;;;9.95;100.00;101627.97;4839490;29;20029;-82
2023/01/05 05:00:55;;;;;;;30.03;6.57;;;;;;;9.94;100.00;101626.28;4819931;29;20786;-82
2023/01/05 05:03:20;;;;;;;29.90;6.50;;;;;;;9.95;100.00;101631.53;4856002;29;20061;-82
2023/01/05 05:05:45;;;;;;;34.67;7.53;;;;;;;9.96;100.00;101635.91;4856603;29;20041;-82
2023/01/05 05:08:11;;;;;;;33.33;6.50;;;;;;;9.91;100.00;101630.25;4838748;29;20045;-83
2023/01/05 05:10:37;;;;;;;31.53;7.13;;;;;;;9.90;100.00;101628.56;4855368;29;20130;-82
2023/01/05 05:13:02;;;;;;;29.00;6.57;;;;;;;9.89;100.00;101647.69;4855110;29;20030;-83
2023/01/05 05:15:27;;;;;;;30.47;6.13;;;;;;;9.91;100.00;101646.47;4822706;29;20171;-83
2023/01/05 05:17:55;;;;;;;31.53;7.13;;;;;;;9.97;100.00;101647.59;4832021;29;20033;-82
2023/01/05 05:20:21;;;;;;;28.67;6.30;;;;;;;9.96;100.00;101646.72;4821581;29;20041;-82
2023/01/05 05:22:46;;;;;;;31.47;6.40;;;;;;;9.95;100.00;101655.91;4831042;29;20041;-83
2023/01/05 05:25:12;;;;;;;28.93;6.53;;;;;;;9.94;100.00;101667.75;4851291;29;20150;-82
2023/01/05 05:27:37;;;;;;;27.30;6.87;;;;;;;9.99;100.00;101661.75;4831167;29;20061;-82
2023/01/05 05:30:03;;;;;;;28.90;6.80;;;;;;;10.00;100.00;101665.34;4837706;29;20438;-82
2023/01/05 05:32:29;;;;;;;29.90;6.87;;;;;;;9.97;100.00;101653.00;4841302;29;20037;-82
2023/01/05 05:34:54;;;;;;;32.93;7.23;;;;;;;9.99;100.00;101652.81;4829712;29;20048;-82
2023/01/05 05:37:19;;;;;;;29.10;6.50;;;;;;;10.04;100.00;101670.16;4840389;29;20025;-82
2023/01/05 05:39:45;;;;;;;30.23;7.13;;;;;;;10.04;100.00;101669.34;4803904;29;20216;-83
2023/01/05 05:42:10;;;;;;;28.83;6.73;;;;;;;10.02;100.00;101655.97;4844296;29;20040;-88
2023/01/05 05:44:36;;;;;;;29.93;7.10;;;;;;;10.06;100.00;101676.25;4864066;29;20569;-87
2023/01/05 05:47:01;;;;;;;30.73;7.20;;;;;;;10.10;100.00;101666.72;4832518;29;20109;-87
2023/01/05 05:49:27;;;;;;;28.83;6.57;;;;;;;10.09;100.00;101677.72;4823583;29;20025;-87
2023/01/05 05:51:52;;;;;;;30.13;6.60;;;;;;;10.04;100.00;101669.34;4847566;29;20049;-88
2023/01/05 05:54:17;;;;;;;28.70;6.60;;;;;;;10.05;100.00;101679.97;4848996;29;20033;-88
2023/01/05 05:56:43;;;;;;;28.07;6.50;;;;;;;10.08;100.00;101684.19;4847668;29;20032;-88
2023/01/05 05:59:08;;;;;;;28.83;6.63;;;;;;;10.08;100.00;101695.00;4861542;29;20055;-87
2023/01/05 06:01:33;;;;;;;29.23;6.67;;;;;;;10.09;100.00;101693.97;4857960;29;20113;-87
2023/01/05 06:03:59;;;;;;;32.73;6.43;;;;;;;10.06;100.00;101699.75;4849439;29;20409;-87
2023/01/05 06:06:24;;;;;;;30.70;7.37;;;;;;;10.02;100.00;101710.13;4862110;29;20032;-88
2023/01/05 06:08:50;;;;;;;28.50;6.77;;;;;;;10.05;100.00;101712.47;4844470;29;20033;-87
2023/01/05 06:11:15;;;;;;;35.83;7.50;;;;;;;10.02;100.00;101706.56;4831661;29;20473;-88
2023/01/05 06:13:41;;;;;;;27.57;6.47;;;;;;;10.07;100.00;101710.41;4857385;29;20033;-82
2023/01/05 06:16:06;;;;;;;33.90;6.73;;;;;;;9.97;100.00;101707.97;4818417;29;20033;-82
2023/01/05 06:18:32;;;;;;;30.03;6.53;;;;;;;10.02;100.00;101714.69;4853807;29;20037;-83
2023/01/05 06:20:57;;;;;;;33.67;7.17;;;;;;;10.02;100.00;101725.53;4831541;29;20033;-82
2023/01/05 06:23:22;;;;;;;30.00;6.47;;;;;;;9.97;100.00;101723.41;4852090;29;20034;-82
2023/01/05 06:25:48;;;;;;;33.40;6.93;;;;;;;9.99;100.00;101724.03;4831216;29;20563;-82
2023/01/05 06:28:13;;;;;;;27.73;6.63;;;;;;;9.95;100.00;101734.41;4830870;29;20037;-82
2023/01/05 06:30:39;;;;;;;35.20;7.80;;;;;;;9.94;100.00;101734.56;4847361;29;20045;-82
2023/01/05 06:33:04;;;;;;;27.80;6.93;;;;;;;9.82;100.00;101738.75;4853972;29;20448;-82
2023/01/05 06:35:30;;;;;;;30.33;7.00;;;;;;;9.86;100.00;101746.34;4816329;29;20116;-82
2023/01/05 06:37:56;;;;;;;30.93;7.03;;;;;;;9.80;100.00;101744.38;4853697;29;20473;-83
2023/01/05 06:40:21;;;;;;;28.63;6.43;;;;;;;9.87;100.00;101750.72;4853807;29;20036;-83
2023/01/05 06:42:46;;;;;;;29.73;7.07;;;;;;;9.79;100.00;101758.91;4854283;29;20090;-82
2023/01/05 06:45:13;;;;;;;29.93;6.87;;;;;;;9.82;100.00;101753.16;4855159;29;20040;-82
2023/01/05 06:47:39;;;;;;;32.47;7.37;;;;;;;9.78;100.00;101754.56;4844501;29;20128;-83
2023/01/05 06:50:05;;;;;;;32.30;6.97;;;;;;;9.82;100.00;101763.13;4829615;29;20036;-82
2023/01/05 06:52:35;;;;;;;33.20;7.20;;;;;;;9.73;100.00;101763.19;4853121;29;20516;-83
2023/01/05 06:55:05;;;;;;;31.27;7.07;;;;;;;9.73;100.00;101765.09;4852921;29;20033;-82
2023/01/05 06:57:30;;;;;;;32.73;7.37;;;;;;;9.75;100.00;101765.72;4853722;29;20076;-82
2023/01/05 06:59:55;;;;;;;32.77;6.93;;;;;;;9.76;100.00;101775.53;4846092;29;20029;-82
2023/01/05 07:02:21;;;;;;;31.73;7.30;;;;;;;9.77;100.00;101769.09;4858977;29;20053;-88
2023/01/05 07:04:46;;;;;;;34.10;7.07;;;;;;;9.77;100.00;101778.06;4854173;29;20116;-88
2023/01/05 07:07:13;;;;;;;36.67;8.23;;;;;;;9.76;100.00;101760.16;4861739;29;20034;-87
2023/01/05 07:09:39;;;;;;;30.20;6.80;;;;;;;9.80;100.00;101766.03;4861908;29;20021;-87
2023/01/05 07:12:04;;;;;;;38.03;7.73;;;;;;;9.82;100.00;101776.66;4864662;29;20112;-87
2023/01/05 07:14:30;;;;;;;35.90;8.10;;;;;;;9.79;100.00;101764.34;4834645;29;20121;-88
2023/01/05 07:16:55;;;;;;;30.80;7.50;;;;;;;9.78;100.00;101770.78;4853041;29;20499;-87
2023/01/05 07:19:20;;;;;;;34.87;8.27;;;;;;;9.82;100.00;101766.69;4863504;29;20065;-87
2023/01/05 07:21:46;;;;;;;38.73;8.40;;;;;;;9.74;100.00;101773.00;4858852;29;20030;-88
2023/01/05 07:24:11;;;;;;;30.13;6.17;;;;;;;9.77;100.00;101802.41;4861041;29;20041;-88
2023/01/05 07:26:37;;;;;;;30.80;7.43;;;;;;;9.80;100.00;101785.81;4852925;29;20120;-87
2023/01/05 07:29:02;;;;;;;30.80;7.07;;;;;;;9.78;100.00;101781.63;4822039;29;20034;-87
2023/01/05 07:31:27;;;;;;;32.27;7.67;;;;;;;9.77;100.00;101783.47;4863959;29;20037;-88
2023/01/05 07:33:53;;;;;;;30.90;6.77;;;;;;;9.74;100.00;101786.53;4858313;29;20126;-83
2023/01/05 07:36:19;;;;;;;33.13;7.80;;;;;;;9.75;100.00;101790.09;4816450;29;20522;-82
2023/01/05 07:38:44;;;;;;;30.30;6.70;;;;;;;9.76;100.00;101787.22;4857943;29;20247;-82
2023/01/05 07:41:10;;;;;;;31.60;7.60;;;;;;;9.75;100.00;101798.19;4856746;29;20938;-82
2023/01/05 07:43:35;;;;;;;35.70;7.50;;;;;;;9.75;100.00;101798.19;4838217;29;20048;-82
2023/01/05 07:46:02;;;;;;;33.90;7.40;;;;;;;9.71;100.00;101794.19;4857610;29;20037;-83
2023/01/05 07:48:28;;;;;;;32.90;7.37;;;;;;;9.72;100.00;101806.69;4841562;29;20088;-82
2023/01/05 07:51:00;;;;;;;31.33;6.77;;;;;;;9.75;100.00;101811.72;4836702;29;20038;-82
2023/01/05 07:53:26;;;;;;;32.80;6.93;;;;;;;9.74;100.00;101810.91;4853168;29;20022;-82
2023/01/05 07:55:59;;;;;;;34.37;7.23;;;;;;;9.78;100.00;101806.81;4852927;29;20048;-82
2023/01/05 07:58:25;;;;;;;39.57;7.93;;;;;;;9.75;100.00;101838.78;4852005;29;20033;-82
2023/01/05 08:00:51;;;;;;;33.60;8.30;;;;;;;9.71;100.00;101813.97;4853748;29;20025;-82
2023/01/05 08:03:17;;;;;;;31.27;7.43;;;;;;;9.67;100.00;101811.81;4852366;29;20097;-82
2023/01/05 08:05:42;;;;;;;36.20;7.33;;;;;;;9.66;100.00;101813.69;4818637;29;20049;-82
2023/01/05 08:08:07;;;;;;;33.90;7.70;;;;;;;9.71;100.00;101822.09;4834772;29;20038;-82
2023/01/05 08:10:33;;;;;;;33.43;7.70;;;;;;;9.71;100.00;101823.94;4854762;29;20040;-81
2023/01/05 08:15:47;;;;;;;33.70;7.80;;;;;;;9.70;100.00;101830.41;4854237;29;20097;-82
2023/01/05 08:18:12;;;;;;;33.13;7.53;;;;;;;9.70;100.00;101827.69;4853894;29;20046;-82
2023/01/05 08:20:38;;;;;;;31.03;7.13;;;;;;;9.65;100.00;101827.41;4835398;29;20028;-82
2023/01/05 08:23:03;;;;;;;32.77;6.93;;;;;;;9.67;100.00;101833.44;4853545;29;20057;-82
2023/01/05 08:25:29;;;;;;;33.30;7.47;;;;;;;9.68;100.00;101827.03;4838378;29;20044;-82
2023/01/05 08:27:54;;;;;;;34.73;7.50;;;;;;;9.67;100.00;101837.03;4851236;29;20057;-82
2023/01/05 08:30:19;;;;;;;33.27;7.63;;;;;;;9.67;100.00;101836.16;4836010;29;20037;-82
2023/01/05 08:32:45;;;;;;;30.07;7.00;;;;;;;9.71;100.00;101822.09;4854228;29;20078;-82
2023/01/05 08:35:10;;;;;;;33.07;7.43;;;;;;;9.69;100.00;101839.53;4833348;29;20069;-87
2023/01/05 08:37:36;;;;;;;35.90;7.47;;;;;;;9.69;100.00;101842.25;4862540;29;20021;-87
2023/01/05 08:40:01;;;;;;;33.73;7.47;;;;;;;9.70;100.00;101849.34;4839524;29;20115;-87
2023/01/05 08:42:27;;;;;;;32.93;7.40;;;;;;;9.74;100.00;101858.78;4853575;29;20542;-87
2023/01/05 08:44:52;;;;;;;34.77;8.63;;;;;;;9.72;100.00;101866.22;4848218;29;20052;-87
2023/01/05 08:47:17;;;;;;;32.57;7.10;;;;;;;9.78;100.00;101860.94;4871514;29;20040;-87
2023/01/05 08:49:43;;;;;;;34.17;7.27;;;;;;;9.74;100.00;101866.91;4845915;29;20490;-87
2023/01/05 08:52:08;;;;;;;32.47;7.20;;;;;;;9.74;100.00;101866.91;4864764;29;20055;-87
2023/01/05 08:54:34;;;;;;;32.63;7.23;;;;;;;9.74;100.00;101875.03;4842623;29;20037;-87
2023/01/05 08:56:59;;;;;;;35.50;8.07;;;;;;;9.76;100.00;101871.13;4857608;29;20025;-87
2023/01/05 08:59:25;;;;;;;34.20;7.60;;;;;;;9.76;100.00;101873.81;4858343;29;20045;-85
2023/01/05 09:01:50;;;;;;;32.53;8.10;;;;;;;9.77;100.00;101874.66;4857761;29;20089;-86
2023/01/05 09:04:16;;;;;;;33.33;7.63;;;;;;;9.73;100.00;101876.03;4826733;29;20120;-87
2023/01/05 09:06:41;;;;;;;35.67;7.87;;;;;;;9.75;100.00;101876.69;4855958;29;20033;-88
2023/01/05 09:09:07;;;;;;;32.23;7.90;;;;;;;9.78;100.00;101888.00;4858106;29;20068;-88
2023/01/05 09:11:33;;;;;;;38.80;8.70;;;;;;;9.75;100.00;101896.50;4822741;29;20380;-88
2023/01/05 09:14:02;;;;;;;33.83;8.37;;;;;;;9.75;100.00;101896.50;4837336;29;20044;-88
2023/01/05 09:16:30;;;;;;;34.80;8.13;;;;;;;9.81;100.00;101911.16;4836696;29;20124;-87
2023/01/05 09:18:58;;;;;;;33.03;7.33;;;;;;;9.85;100.00;101906.25;4857951;29;20045;-87
2023/01/05 09:21:23;;;;;;;39.57;8.77;;;;;;;9.84;100.00;101896.44;4851488;29;20029;-86
2023/01/05 09:23:49;;;;;;;36.93;7.97;;;;;;;9.84;100.00;101904.56;4856384;29;20367;-86
2023/01/05 09:26:15;;;;;;;31.83;7.17;;;;;;;9.87;100.00;101906.88;4859966;29;20104;-87
2023/01/05 09:28:42;;;;;;;34.00;7.83;;;;;;;9.86;100.00;101916.03;4857323;29;20026;-88
2023/01/05 09:31:16;;;;;;;34.20;7.73;;;;;;;9.90;100.00;101910.09;4838963;29;20097;-87
2023/01/05 09:33:42;;;;;;;;;;;;;;;10.01;100.00;101916.94;4840838;29;20068;-87
2023/01/05 09:36:08;;;;;;;36.37;7.90;;;;;;;9.93;100.00;101928.66;4859022;29;20845;-87
2023/01/05 09:38:34;;;;;;;35.17;8.17;;;;;;;9.95;100.00;101920.34;4839875;29;20116;-88
2023/01/05 09:41:20;;;;;;;33.40;8.60;;;;;;;10.00;100.00;101922.53;4839772;29;20029;-86
2023/01/05 09:43:47;;;;;;;36.50;8.90;;;;;;;10.00;100.00;101917.13;4855744;29;20032;-87
2023/01/05 09:46:17;;;;;;;36.53;8.27;;;;;;;10.00;100.00;101928.78;4856575;29;20049;-88
2023/01/05 09:48:46;;;;;;;30.03;7.77;;;;;;;10.05;100.00;101928.22;4837701;29;20368;-87
2023/01/05 09:51:12;;;;;;;33.17;8.50;;;;;;;10.07;100.00;101939.72;4856560;29;20045;-87
2023/01/05 09:53:38;;;;;;;29.43;7.30;;;;;;;10.09;100.00;101943.09;4837959;29;20040;-87
2023/01/05 09:56:05;;;;;;;33.83;8.07;;;;;;;10.09;100.00;101938.53;4855581;29;20125;-88
2023/01/05 09:58:38;;;;;;;36.70;9.00;;;;;;;10.07;100.00;101937.84;4854339;29;20108;-87
2023/01/05 10:01:13;;;;;;;31.23;8.32;;;;;;;10.10;100.00;101947.47;4851180;29;20120;-82
2023/01/05 10:03:58;;;;;;;;;;;;;;;10.25;100.00;101947.53;4844165;29;20071;-83
2023/01/05 10:06:28;;;;;;;34.55;7.80;;;;;;;10.10;100.00;101942.94;4848898;29;19920;-83
2023/01/05 10:08:55;;;;;;;33.73;7.67;;;;;;;10.11;100.00;101946.47;4849877;29;20033;-83
2023/01/05 10:14:21;;;;;;;36.42;7.78;;;;;;;10.06;100.00;101952.44;4819815;29;20037;-82
2023/01/05 10:16:46;;;;;;;29.73;7.17;;;;;;;10.07;100.00;101951.41;4848691;29;20037;-83
2023/01/05 10:19:15;;;;;;;38.27;8.70;;;;;;;10.05;100.00;101958.88;4852374;29;20071;-83
2023/01/05 10:22:00;;;;;;;37.00;8.60;;;;;;;10.12;100.00;101956.28;4851513;29;20762;-82
2023/01/05 10:24:52;;;;;;;35.60;8.80;;;;;;;10.18;100.00;101958.25;4842465;29;20443;-82
2023/01/05 10:27:30;;;;;;;29.23;7.57;;;;;;;10.18;100.00;101958.25;4809265;29;20086;-82
2023/01/05 10:30:12;;;;;;;33.60;7.53;;;;;;;10.18;100.00;101957.41;4827639;29;20437;-82
2023/01/05 10:32:49;;;;;;;31.33;7.73;;;;;;;10.27;100.00;101959.88;4850165;29;20360;-82
2023/01/05 10:35:59;;;;;;;30.03;7.83;;;;;;;10.33;100.00;101965.59;4854163;29;20947;-84
2023/01/05 10:38:30;;;;;;;38.57;10.43;;;;;;;10.27;100.00;101968.00;4822377;29;20046;-83
2023/01/05 10:41:19;;;;;;;43.57;8.53;;;;;;;10.31;100.00;101958.47;4850130;29;20084;-83
2023/01/05 10:44:00;;;;;;;36.13;7.60;;;;;;;10.34;100.00;101967.28;4836422;29;20025;-83
2023/01/05 10:46:25;;;;;;;36.03;9.37;;;;;;;10.27;100.00;101965.28;4856694;29;20052;-83
2023/01/05 10:48:51;;;;;;;30.83;7.87;;;;;;;10.23;100.00;101958.56;4831388;29;20030;-83
2023/01/05 10:51:17;;;;;;;36.00;7.93;;;;;;;10.22;100.00;101954.16;4856190;29;20064;-83
2023/01/05 10:53:43;;;;;;;33.47;7.40;;;;;;;10.28;100.00;101955.28;4844632;29;20037;-88
2023/01/05 10:56:09;;;;;;;35.60;8.67;;;;;;;10.23;100.00;101972.09;4847601;29;20390;-88
2023/01/05 10:58:42;;;;;;;31.50;6.47;;;;;;;10.30;100.00;101962.22;4864544;29;20029;-88
2023/01/05 11:01:25;;;;;;;29.10;6.90;;;;;;;10.35;100.00;101963.56;4859704;29;20093;-87
2023/01/05 11:04:01;;;;;;;33.80;7.97;;;;;;;10.31;100.00;101947.66;4842006;29;20054;-87
2023/01/05 11:06:31;;;;;;;34.43;7.67;;;;;;;10.28;100.00;101964.28;4855820;29;20101;-88
2023/01/05 11:09:09;;;;;;;35.63;8.03;;;;;;;10.30;100.00;101959.50;4858275;29;20045;-87
2023/01/05 11:11:34;;;;;;;34.37;7.83;;;;;;;10.29;100.00;101965.97;4860994;29;21711;-88
2023/01/05 11:14:00;;;;;;;31.87;7.53;;;;;;;10.28;100.00;101969.69;4862071;29;20038;-86
2023/01/05 11:16:37;;;;;;;32.30;7.53;;;;;;;10.25;100.00;101972.78;4855072;29;20045;-87
2023/01/05 11:19:09;;;;;;;33.60;8.20;;;;;;;10.20;100.00;101966.19;4839910;29;21898;-87
2023/01/05 11:21:34;;;;;;;33.97;7.23;;;;;;;10.24;100.00;101968.38;4861985;29;20397;-87
2023/01/05 11:23:59;;;;;;;34.80;9.17;;;;;;;10.23;100.00;101979.38;4842303;29;20128;-87
2023/01/05 11:26:26;;;;;;;32.03;7.77;;;;;;;10.23;100.00;101969.38;4859856;29;20037;-87
2023/01/05 11:29:01;;;;;;;33.73;7.37;;;;;;;10.26;100.00;101970.88;4853389;29;20041;-83
2023/01/05 11:31:34;;;;;;;34.03;7.50;;;;;;;10.27;100.00;101964.47;4838291;29;20395;-83
2023/01/05 11:34:14;;;;;;;32.73;6.83;;;;;;;10.30;100.00;101962.22;4855056;29;20045;-83
2023/01/05 11:36:41;;;;;;;31.93;7.13;;;;;;;10.45;100.00;101962.28;4852636;29;20080;-81
2023/01/05 11:39:25;;;;;;;33.77;7.53;;;;;;;10.52;100.00;101956.13;4847969;29;20080;-82
2023/01/05 11:42:03;;;;;;;32.67;7.45;;;;;;;10.59;100.00;101955.22;4849693;29;20044;-82
2023/01/05 11:44:29;;;;;;;30.80;7.30;;;;;;;10.70;100.00;101961.19;4848993;29;20033;-82
2023/01/05 11:46:54;;;;;;;33.43;7.87;;;;;;;10.72;100.00;101951.03;4844104;29;20052;-82
2023/01/05 11:49:20;;;;;;;30.40;7.03;;;;;;;10.77;100.00;101945.88;4833671;29;20047;-88
2023/01/05 11:51:45;;;;;;;30.63;7.43;;;;;;;10.74;100.00;101951.66;4841074;29;20069;-83
2023/01/05 11:54:41;;;;;;;33.30;7.77;;;;;;;10.75;100.00;101956.91;4817372;29;20034;-82
2023/01/05 11:57:14;;;;;;;33.53;7.40;;;;;;;10.66;100.00;101949.88;4824692;29;20061;-82
2023/01/05 11:59:39;;;;;;;31.90;8.33;;;;;;;10.64;100.00;101946.53;4826336;29;20041;-81
2023/01/05 12:02:54;;;;;;;36.87;7.70;;;;;;;10.78;100.00;101947.56;4820078;29;20078;-83